sensor_id;sensor_type;location;lat;lon;timestamp;temperature;humidity
71177;DHT22;58877;51.992;4.504;2023-11-21T00:00:57;9.97;84.99
71177;DHT22;58877;51.992;4.504;2023-11-21T00:03:40;10.05;84.83
71177;DHT22;58877;51.992;4.504;2023-11-21T00:06:10;10.10;85.00
71177;DHT22;58877;51.992;4.504;2023-11-21T00:08:43;10.24;85.28
71177;DHT22;58877;51.992;4.504;2023-11-21T00:11:37;10.49;83.89
71177;DHT22;58877;51.992;4.504;2023-11-21T00:14:23;10.46;83.77
71177;DHT22;58877;51.992;4.504;2023-11-21T00:17:02;10.47;83.73
71177;DHT22;58877;51.992;4.504;2023-11-21T00:19:46;10.29;83.80
71177;DHT22;58877;51.992;4.504;2023-11-21T00:22:12;10.24;84.35
71177;DHT22;58877;51.992;4.504;2023-11-21T00:27:51;10.24;84.41
71177;DHT22;58877;51.992;4.504;2023-11-21T00:33:24;10.32;84.63
71177;DHT22;58877;51.992;4.504;2023-11-21T00:35:51;10.30;84.70
71177;DHT22;58877;51.992;4.504;2023-11-21T00:38:16;10.36;84.74
71177;DHT22;58877;51.992;4.504;2023-11-21T00:40:54;10.40;84.68
71177;DHT22;58877;51.992;4.504;2023-11-21T00:43:24;10.40;84.60
71177;DHT22;58877;51.992;4.504;2023-11-21T00:46:13;10.40;84.69
71177;DHT22;58877;51.992;4.504;2023-11-21T00:49:04;10.43;84.79
71177;DHT22;58877;51.992;4.504;2023-11-21T00:54:27;10.51;84.77
71177;DHT22;58877;51.992;4.504;2023-11-21T00:57:08;10.54;84.69
71177;DHT22;58877;51.992;4.504;2023-11-21T00:59:44;10.54;84.66
71177;DHT22;58877;51.992;4.504;2023-11-21T01:02:10;10.59;84.63
71177;DHT22;58877;51.992;4.504;2023-11-21T01:04:58;10.61;84.64
71177;DHT22;58877;51.992;4.504;2023-11-21T01:13:22;10.68;84.60
71177;DHT22;58877;51.992;4.504;2023-11-21T01:15:48;10.70;84.60
71177;DHT22;58877;51.992;4.504;2023-11-21T01:18:13;10.75;84.63
71177;DHT22;58877;51.992;4.504;2023-11-21T01:20:39;10.78;84.57
71177;DHT22;58877;51.992;4.504;2023-11-21T01:23:05;10.82;84.68
71177;DHT22;58877;51.992;4.504;2023-11-21T01:25:31;10.88;84.62
71177;DHT22;58877;51.992;4.504;2023-11-21T01:27:57;10.91;84.62
71177;DHT22;58877;51.992;4.504;2023-11-21T01:30:23;10.91;84.66
71177;DHT22;58877;51.992;4.504;2023-11-21T01:32:50;10.97;84.62
71177;DHT22;58877;51.992;4.504;2023-11-21T01:35:16;11.01;84.63
71177;DHT22;58877;51.992;4.504;2023-11-21T01:37:42;11.05;84.69
71177;DHT22;58877;51.992;4.504;2023-11-21T01:40:08;11.10;84.46
71177;DHT22;58877;51.992;4.504;2023-11-21T01:42:42;11.07;84.43
71177;DHT22;58877;51.992;4.504;2023-11-21T01:45:13;11.08;84.57
71177;DHT22;58877;51.992;4.504;2023-11-21T01:47:41;11.22;84.67
71177;DHT22;58877;51.992;4.504;2023-11-21T01:50:08;11.29;83.90
71177;DHT22;58877;51.992;4.504;2023-11-21T01:52:39;11.22;83.88
71177;DHT22;58877;51.992;4.504;2023-11-21T01:55:07;11.15;84.05
71177;DHT22;58877;51.992;4.504;2023-11-21T01:57:37;11.11;84.10
71177;DHT22;58877;51.992;4.504;2023-11-21T02:00:04;11.08;84.24
71177;DHT22;58877;51.992;4.504;2023-11-21T02:02:47;11.15;84.43
71177;DHT22;58877;51.992;4.504;2023-11-21T02:05:18;11.24;84.14
71177;DHT22;58877;51.992;4.504;2023-11-21T02:07:45;11.19;84.03
71177;DHT22;58877;51.992;4.504;2023-11-21T02:10:14;11.18;84.01
71177;DHT22;58877;51.992;4.504;2023-11-21T02:12:41;11.14;84.10
71177;DHT22;58877;51.992;4.504;2023-11-21T02:15:09;11.16;84.26
71177;DHT22;58877;51.992;4.504;2023-11-21T02:17:44;11.16;84.20
71177;DHT22;58877;51.992;4.504;2023-11-21T02:20:11;11.15;84.34
71177;DHT22;58877;51.992;4.504;2023-11-21T02:22:41;11.12;84.30
71177;DHT22;58877;51.992;4.504;2023-11-21T02:25:08;11.10;84.64
71177;DHT22;58877;51.992;4.504;2023-11-21T02:27:34;11.12;84.62
71177;DHT22;58877;51.992;4.504;2023-11-21T02:30:00;11.15;84.55
71177;DHT22;58877;51.992;4.504;2023-11-21T02:32:26;11.16;84.52
71177;DHT22;58877;51.992;4.504;2023-11-21T02:34:52;11.21;84.51
71177;DHT22;58877;51.992;4.504;2023-11-21T02:37:21;11.32;84.56
71177;DHT22;58877;51.992;4.504;2023-11-21T02:39:47;11.36;84.56
71177;DHT22;58877;51.992;4.504;2023-11-21T02:42:12;11.48;84.39
71177;DHT22;58877;51.992;4.504;2023-11-21T02:44:38;11.52;84.13
71177;DHT22;58877;51.992;4.504;2023-11-21T02:47:04;11.51;84.22
71177;DHT22;58877;51.992;4.504;2023-11-21T02:49:29;11.67;83.49
71177;DHT22;58877;51.992;4.504;2023-11-21T02:51:56;11.67;83.28
71177;DHT22;58877;51.992;4.504;2023-11-21T02:54:22;11.62;83.29
71177;DHT22;58877;51.992;4.504;2023-11-21T02:56:48;11.54;83.58
71177;DHT22;58877;51.992;4.504;2023-11-21T02:59:15;11.45;83.75
71177;DHT22;58877;51.992;4.504;2023-11-21T03:01:41;11.42;84.05
71177;DHT22;58877;51.992;4.504;2023-11-21T03:04:07;11.42;84.11
71177;DHT22;58877;51.992;4.504;2023-11-21T03:06:33;11.40;84.23
71177;DHT22;58877;51.992;4.504;2023-11-21T03:08:59;11.43;84.31
71177;DHT22;58877;51.992;4.504;2023-11-21T03:11:25;11.51;84.43
71177;DHT22;58877;51.992;4.504;2023-11-21T03:13:50;11.69;84.14
71177;DHT22;58877;51.992;4.504;2023-11-21T03:16:16;11.62;84.07
71177;DHT22;58877;51.992;4.504;2023-11-21T03:18:42;11.62;84.11
71177;DHT22;58877;51.992;4.504;2023-11-21T03:21:08;11.62;84.14
71177;DHT22;58877;51.992;4.504;2023-11-21T03:23:37;11.61;84.19
71177;DHT22;58877;51.992;4.504;2023-11-21T03:26:03;11.65;83.88
71177;DHT22;58877;51.992;4.504;2023-11-21T03:28:31;11.59;83.68
71177;DHT22;58877;51.992;4.504;2023-11-21T03:30:57;11.59;84.01
71177;DHT22;58877;51.992;4.504;2023-11-21T03:33:23;11.61;84.11
71177;DHT22;58877;51.992;4.504;2023-11-21T03:35:49;11.70;84.10
71177;DHT22;58877;51.992;4.504;2023-11-21T03:38:15;11.66;84.09
71177;DHT22;58877;51.992;4.504;2023-11-21T03:40:41;11.65;84.14
71177;DHT22;58877;51.992;4.504;2023-11-21T03:43:07;11.69;84.18
71177;DHT22;58877;51.992;4.504;2023-11-21T03:45:33;11.70;84.11
71177;DHT22;58877;51.992;4.504;2023-11-21T03:48:00;11.80;84.23
71177;DHT22;58877;51.992;4.504;2023-11-21T03:50:29;11.80;84.00
71177;DHT22;58877;51.992;4.504;2023-11-21T03:52:54;11.79;84.25
71177;DHT22;58877;51.992;4.504;2023-11-21T03:55:20;11.85;84.17
71177;DHT22;58877;51.992;4.504;2023-11-21T03:57:46;11.97;83.45
71177;DHT22;58877;51.992;4.504;2023-11-21T04:00:12;11.91;83.41
71177;DHT22;58877;51.992;4.504;2023-11-21T04:02:38;11.79;83.93
71177;DHT22;58877;51.992;4.504;2023-11-21T04:05:05;11.79;84.28
71177;DHT22;58877;51.992;4.504;2023-11-21T04:07:32;11.73;84.41
71177;DHT22;58877;51.992;4.504;2023-11-21T04:09:59;11.75;84.21
71177;DHT22;58877;51.992;4.504;2023-11-21T04:12:24;11.72;84.73
71177;DHT22;58877;51.992;4.504;2023-11-21T04:14:50;11.66;84.80
71177;DHT22;58877;51.992;4.504;2023-11-21T04:17:18;11.72;84.97
71177;DHT22;58877;51.992;4.504;2023-11-21T04:19:45;11.73;85.36
71177;DHT22;58877;51.992;4.504;2023-11-21T04:22:11;11.76;84.89
71177;DHT22;58877;51.992;4.504;2023-11-21T04:24:38;11.76;84.90
71177;DHT22;58877;51.992;4.504;2023-11-21T04:27:03;11.72;84.69
71177;DHT22;58877;51.992;4.504;2023-11-21T04:29:29;11.73;84.96
71177;DHT22;58877;51.992;4.504;2023-11-21T04:31:55;11.77;85.01
71177;DHT22;58877;51.992;4.504;2023-11-21T04:34:21;11.80;84.81
71177;DHT22;58877;51.992;4.504;2023-11-21T04:36:47;11.79;84.87
71177;DHT22;58877;51.992;4.504;2023-11-21T04:39:12;11.67;85.02
71177;DHT22;58877;51.992;4.504;2023-11-21T04:41:39;11.63;85.45
71177;DHT22;58877;51.992;4.504;2023-11-21T04:44:06;11.73;85.41
71177;DHT22;58877;51.992;4.504;2023-11-21T04:46:32;11.83;85.05
71177;DHT22;58877;51.992;4.504;2023-11-21T04:48:58;11.82;85.14
71177;DHT22;58877;51.992;4.504;2023-11-21T04:51:24;11.77;85.01
71177;DHT22;58877;51.992;4.504;2023-11-21T04:53:49;11.79;85.28
71177;DHT22;58877;51.992;4.504;2023-11-21T04:56:15;11.76;85.50
71177;DHT22;58877;51.992;4.504;2023-11-21T04:58:42;11.75;85.36
71177;DHT22;58877;51.992;4.504;2023-11-21T05:01:08;11.73;85.62
71177;DHT22;58877;51.992;4.504;2023-11-21T05:03:34;11.66;85.61
71177;DHT22;58877;51.992;4.504;2023-11-21T05:06:00;11.67;85.92
71177;DHT22;58877;51.992;4.504;2023-11-21T05:08:26;11.76;86.18
71177;DHT22;58877;51.992;4.504;2023-11-21T05:10:52;11.89;85.98
71177;DHT22;58877;51.992;4.504;2023-11-21T05:13:20;11.93;85.49
71177;DHT22;58877;51.992;4.504;2023-11-21T05:15:45;11.91;85.28
71177;DHT22;58877;51.992;4.504;2023-11-21T05:18:11;11.87;85.12
71177;DHT22;58877;51.992;4.504;2023-11-21T05:20:39;11.73;85.66
71177;DHT22;58877;51.992;4.504;2023-11-21T05:23:07;11.77;85.74
71177;DHT22;58877;51.992;4.504;2023-11-21T05:25:33;11.83;85.65
71177;DHT22;58877;51.992;4.504;2023-11-21T05:27:59;11.89;85.06
71177;DHT22;58877;51.992;4.504;2023-11-21T05:30:26;11.70;84.90
71177;DHT22;58877;51.992;4.504;2023-11-21T05:32:53;11.62;85.39
71177;DHT22;58877;51.992;4.504;2023-11-21T05:35:18;11.58;85.72
71177;DHT22;58877;51.992;4.504;2023-11-21T05:37:45;11.66;85.52
71177;DHT22;58877;51.992;4.504;2023-11-21T05:40:11;11.67;85.11
71177;DHT22;58877;51.992;4.504;2023-11-21T05:42:39;11.66;85.30
71177;DHT22;58877;51.992;4.504;2023-11-21T05:45:06;11.56;85.37
71177;DHT22;58877;51.992;4.504;2023-11-21T05:47:43;11.43;86.05
71177;DHT22;58877;51.992;4.504;2023-11-21T05:50:11;11.45;86.37
71177;DHT22;58877;51.992;4.504;2023-11-21T05:52:41;11.48;86.45
71177;DHT22;58877;51.992;4.504;2023-11-21T05:55:08;11.54;86.42
71177;DHT22;58877;51.992;4.504;2023-11-21T05:57:38;11.56;86.46
71177;DHT22;58877;51.992;4.504;2023-11-21T06:00:05;11.56;86.67
71177;DHT22;58877;51.992;4.504;2023-11-21T06:02:39;11.61;86.75
71177;DHT22;58877;51.992;4.504;2023-11-21T06:05:09;11.63;86.89
71177;DHT22;58877;51.992;4.504;2023-11-21T06:07:37;11.63;86.93
71177;DHT22;58877;51.992;4.504;2023-11-21T06:10:07;11.65;86.78
71177;DHT22;58877;51.992;4.504;2023-11-21T06:12:34;11.61;87.07
71177;DHT22;58877;51.992;4.504;2023-11-21T06:15:05;11.58;86.89
71177;DHT22;58877;51.992;4.504;2023-11-21T06:17:34;11.65;87.04
71177;DHT22;58877;51.992;4.504;2023-11-21T06:20:04;11.69;87.04
71177;DHT22;58877;51.992;4.504;2023-11-21T06:22:36;11.65;86.54
71177;DHT22;58877;51.992;4.504;2023-11-21T06:25:01;11.66;86.80
71177;DHT22;58877;51.992;4.504;2023-11-21T06:27:28;11.65;87.17
71177;DHT22;58877;51.992;4.504;2023-11-21T06:29:55;11.70;86.96
71177;DHT22;58877;51.992;4.504;2023-11-21T06:32:20;11.72;86.78
71177;DHT22;58877;51.992;4.504;2023-11-21T06:34:48;11.75;86.10
71177;DHT22;58877;51.992;4.504;2023-11-21T06:37:15;11.65;85.98
71177;DHT22;58877;51.992;4.504;2023-11-21T06:39:40;11.55;86.43
71177;DHT22;58877;51.992;4.504;2023-11-21T06:42:08;11.52;86.46
71177;DHT22;58877;51.992;4.504;2023-11-21T06:44:34;11.48;86.38
71177;DHT22;58877;51.992;4.504;2023-11-21T06:47:01;11.55;86.54
71177;DHT22;58877;51.992;4.504;2023-11-21T06:49:27;11.52;86.55
71177;DHT22;58877;51.992;4.504;2023-11-21T06:51:53;11.56;86.42
71177;DHT22;58877;51.992;4.504;2023-11-21T06:54:19;11.46;86.09
71177;DHT22;58877;51.992;4.504;2023-11-21T06:56:47;11.49;86.35
71177;DHT22;58877;51.992;4.504;2023-11-21T06:59:12;11.49;86.10
71177;DHT22;58877;51.992;4.504;2023-11-21T07:01:38;11.39;86.43
71177;DHT22;58877;51.992;4.504;2023-11-21T07:04:06;11.38;86.49
71177;DHT22;58877;51.992;4.504;2023-11-21T07:06:32;11.43;86.50
71177;DHT22;58877;51.992;4.504;2023-11-21T07:08:58;11.39;86.60
71177;DHT22;58877;51.992;4.504;2023-11-21T07:11:25;11.39;86.79
71177;DHT22;58877;51.992;4.504;2023-11-21T07:13:51;11.45;86.95
71177;DHT22;58877;51.992;4.504;2023-11-21T07:16:18;11.45;86.62
71177;DHT22;58877;51.992;4.504;2023-11-21T07:18:44;11.38;86.93
71177;DHT22;58877;51.992;4.504;2023-11-21T07:21:10;11.36;87.08
71177;DHT22;58877;51.992;4.504;2023-11-21T07:23:40;11.39;87.02
71177;DHT22;58877;51.992;4.504;2023-11-21T07:26:07;11.40;86.82
71177;DHT22;58877;51.992;4.504;2023-11-21T07:28:35;11.39;87.45
71177;DHT22;58877;51.992;4.504;2023-11-21T07:31:01;11.29;87.81
71177;DHT22;58877;51.992;4.504;2023-11-21T07:33:28;11.45;87.65
71177;DHT22;58877;51.992;4.504;2023-11-21T07:35:54;11.51;87.62
71177;DHT22;58877;51.992;4.504;2023-11-21T07:38:20;11.49;87.46
71177;DHT22;58877;51.992;4.504;2023-11-21T07:40:46;11.46;87.52
71177;DHT22;58877;51.992;4.504;2023-11-21T07:43:12;11.51;87.61
71177;DHT22;58877;51.992;4.504;2023-11-21T07:45:38;11.62;87.48
71177;DHT22;58877;51.992;4.504;2023-11-21T07:48:04;11.63;87.11
71177;DHT22;58877;51.992;4.504;2023-11-21T07:50:30;11.49;87.18
71177;DHT22;58877;51.992;4.504;2023-11-21T07:52:57;11.62;87.09
71177;DHT22;58877;51.992;4.504;2023-11-21T07:55:23;11.62;87.13
71177;DHT22;58877;51.992;4.504;2023-11-21T07:57:50;11.58;87.17
71177;DHT22;58877;51.992;4.504;2023-11-21T08:00:16;11.66;86.95
71177;DHT22;58877;51.992;4.504;2023-11-21T08:02:41;11.63;86.59
71177;DHT22;58877;51.992;4.504;2023-11-21T08:05:08;11.72;86.48
71177;DHT22;58877;51.992;4.504;2023-11-21T08:07:34;11.54;86.52
71177;DHT22;58877;51.992;4.504;2023-11-21T08:10:00;11.69;86.69
71177;DHT22;58877;51.992;4.504;2023-11-21T08:12:25;11.69;86.10
71177;DHT22;58877;51.992;4.504;2023-11-21T08:14:53;11.72;86.12
71177;DHT22;58877;51.992;4.504;2023-11-21T08:17:19;11.79;86.02
71177;DHT22;58877;51.992;4.504;2023-11-21T08:19:45;11.79;85.92
71177;DHT22;58877;51.992;4.504;2023-11-21T08:22:15;11.80;85.33
71177;DHT22;58877;51.992;4.504;2023-11-21T08:24:44;11.79;85.41
71177;DHT22;58877;51.992;4.504;2023-11-21T08:27:10;11.93;85.49
71177;DHT22;58877;51.992;4.504;2023-11-21T08:29:35;11.89;85.01
71177;DHT22;58877;51.992;4.504;2023-11-21T08:32:02;11.90;85.40
71177;DHT22;58877;51.992;4.504;2023-11-21T08:34:28;11.96;85.20
71177;DHT22;58877;51.992;4.504;2023-11-21T08:36:54;12.07;85.10
71177;DHT22;58877;51.992;4.504;2023-11-21T08:39:21;12.03;84.98
71177;DHT22;58877;51.992;4.504;2023-11-21T08:41:50;11.90;85.12
71177;DHT22;58877;51.992;4.504;2023-11-21T08:44:16;11.94;85.64
71177;DHT22;58877;51.992;4.504;2023-11-21T08:46:46;12.14;84.91
71177;DHT22;58877;51.992;4.504;2023-11-21T08:49:12;12.12;85.20
71177;DHT22;58877;51.992;4.504;2023-11-21T08:51:38;12.00;85.11
71177;DHT22;58877;51.992;4.504;2023-11-21T08:54:04;12.12;85.42
71177;DHT22;58877;51.992;4.504;2023-11-21T08:56:33;12.03;84.98
71177;DHT22;58877;51.992;4.504;2023-11-21T08:58:59;11.97;85.38
71177;DHT22;58877;51.992;4.504;2023-11-21T09:01:29;11.87;85.44
71177;DHT22;58877;51.992;4.504;2023-11-21T09:03:57;11.86;85.79
71177;DHT22;58877;51.992;4.504;2023-11-21T09:06:24;11.86;86.03
71177;DHT22;58877;51.992;4.504;2023-11-21T09:08:50;11.94;85.89
71177;DHT22;58877;51.992;4.504;2023-11-21T09:11:17;12.01;85.69
71177;DHT22;58877;51.992;4.504;2023-11-21T09:13:43;12.03;85.67
71177;DHT22;58877;51.992;4.504;2023-11-21T09:16:08;11.89;85.80
71177;DHT22;58877;51.992;4.504;2023-11-21T09:18:34;11.91;86.01
71177;DHT22;58877;51.992;4.504;2023-11-21T09:21:00;11.86;86.14
71177;DHT22;58877;51.992;4.504;2023-11-21T09:23:25;11.91;85.98
71177;DHT22;58877;51.992;4.504;2023-11-21T09:25:52;11.77;86.58
71177;DHT22;58877;51.992;4.504;2023-11-21T09:28:22;11.79;86.52
71177;DHT22;58877;51.992;4.504;2023-11-21T09:30:47;11.83;86.57
71177;DHT22;58877;51.992;4.504;2023-11-21T09:33:15;11.82;86.59
71177;DHT22;58877;51.992;4.504;2023-11-21T09:35:41;11.73;86.92
71177;DHT22;58877;51.992;4.504;2023-11-21T09:38:09;11.82;86.90
71177;DHT22;58877;51.992;4.504;2023-11-21T09:40:37;11.90;87.08
71177;DHT22;58877;51.992;4.504;2023-11-21T09:43:09;11.87;86.76
71177;DHT22;58877;51.992;4.504;2023-11-21T09:45:48;12.00;86.82
71177;DHT22;58877;51.992;4.504;2023-11-21T09:48:19;11.94;86.47
71177;DHT22;58877;51.992;4.504;2023-11-21T09:50:47;12.00;86.74
71177;DHT22;58877;51.992;4.504;2023-11-21T09:53:13;11.99;86.27
71177;DHT22;58877;51.992;4.504;2023-11-21T09:55:45;11.93;86.33
71177;DHT22;58877;51.992;4.504;2023-11-21T09:58:13;12.00;86.31
71177;DHT22;58877;51.992;4.504;2023-11-21T10:00:49;12.00;86.11
71177;DHT22;58877;51.992;4.504;2023-11-21T10:03:15;11.96;85.77
71177;DHT22;58877;51.992;4.504;2023-11-21T10:05:43;11.97;86.09
71177;DHT22;58877;51.992;4.504;2023-11-21T10:08:11;11.99;85.75
71177;DHT22;58877;51.992;4.504;2023-11-21T10:10:37;11.94;85.71
71177;DHT22;58877;51.992;4.504;2023-11-21T10:13:05;11.87;85.96
71177;DHT22;58877;51.992;4.504;2023-11-21T10:15:36;11.83;86.11
71177;DHT22;58877;51.992;4.504;2023-11-21T10:18:07;11.87;85.97
71177;DHT22;58877;51.992;4.504;2023-11-21T10:20:34;11.82;86.04
71177;DHT22;58877;51.992;4.504;2023-11-21T10:23:01;11.94;85.82
71177;DHT22;58877;51.992;4.504;2023-11-21T10:25:27;11.86;86.05
71177;DHT22;58877;51.992;4.504;2023-11-21T10:28:01;11.94;86.07
71177;DHT22;58877;51.992;4.504;2023-11-21T10:30:39;11.89;86.04
71177;DHT22;58877;51.992;4.504;2023-11-21T10:33:06;11.85;85.98
71177;DHT22;58877;51.992;4.504;2023-11-21T10:35:42;11.87;85.55
71177;DHT22;58877;51.992;4.504;2023-11-21T10:38:14;11.77;85.45
71177;DHT22;58877;51.992;4.504;2023-11-21T10:40:41;11.66;84.93
71177;DHT22;58877;51.992;4.504;2023-11-21T10:43:08;11.67;85.26
71177;DHT22;58877;51.992;4.504;2023-11-21T10:45:36;11.76;85.29
71177;DHT22;58877;51.992;4.504;2023-11-21T10:48:06;11.75;85.36
71177;DHT22;58877;51.992;4.504;2023-11-21T10:50:37;11.79;85.45
71177;DHT22;58877;51.992;4.504;2023-11-21T10:53:04;11.72;85.72
71177;DHT22;58877;51.992;4.504;2023-11-21T10:55:31;11.69;85.91
71177;DHT22;58877;51.992;4.504;2023-11-21T10:58:03;11.67;86.38
71177;DHT22;58877;51.992;4.504;2023-11-21T11:00:31;11.56;86.63
71177;DHT22;58877;51.992;4.504;2023-11-21T11:02:57;11.58;86.47
71177;DHT22;58877;51.992;4.504;2023-11-21T11:05:26;11.42;86.83
71177;DHT22;58877;51.992;4.504;2023-11-21T11:08:05;11.43;87.28
71177;DHT22;58877;51.992;4.504;2023-11-21T11:10:31;11.39;87.71
71177;DHT22;58877;51.992;4.504;2023-11-21T11:13:01;11.49;87.58
71177;DHT22;58877;51.992;4.504;2023-11-21T11:15:28;11.43;87.44
71177;DHT22;58877;51.992;4.504;2023-11-21T11:17:54;11.31;87.78
71177;DHT22;58877;51.992;4.504;2023-11-21T11:20:36;11.34;87.86
71177;DHT22;58877;51.992;4.504;2023-11-21T11:25:53;11.31;87.89
71177;DHT22;58877;51.992;4.504;2023-11-21T11:28:29;11.48;87.86
71177;DHT22;58877;51.992;4.504;2023-11-21T11:31:06;11.42;87.62
71177;DHT22;58877;51.992;4.504;2023-11-21T11:33:52;11.51;87.68
71177;DHT22;58877;51.992;4.504;2023-11-21T11:36:40;11.52;87.43
71177;DHT22;58877;51.992;4.504;2023-11-21T11:39:39;11.43;87.05
71177;DHT22;58877;51.992;4.504;2023-11-21T11:42:15;11.39;87.29
71177;DHT22;58877;51.992;4.504;2023-11-21T11:49:57;11.54;86.00
71177;DHT22;58877;51.992;4.504;2023-11-21T11:52:47;11.55;85.48
71177;DHT22;58877;51.992;4.504;2023-11-21T11:55:14;11.66;85.21
71177;DHT22;58877;51.992;4.504;2023-11-21T11:57:45;11.66;85.19
71177;DHT22;58877;51.992;4.504;2023-11-21T12:02:56;11.66;85.28
71177;DHT22;58877;51.992;4.504;2023-11-21T12:05:23;11.80;84.99
71177;DHT22;58877;51.992;4.504;2023-11-21T12:07:52;11.73;84.57
71177;DHT22;58877;51.992;4.504;2023-11-21T12:10:23;11.66;84.88
71177;DHT22;58877;51.992;4.504;2023-11-21T12:12:55;11.67;85.40
71177;DHT22;58877;51.992;4.504;2023-11-21T12:15:22;11.67;85.28
71177;DHT22;58877;51.992;4.504;2023-11-21T12:17:49;11.66;84.79
71177;DHT22;58877;51.992;4.504;2023-11-21T12:20:19;11.61;84.72
71177;DHT22;58877;51.992;4.504;2023-11-21T12:22:47;11.59;84.64
71177;DHT22;58877;51.992;4.504;2023-11-21T12:25:17;11.61;84.08
71177;DHT22;58877;51.992;4.504;2023-11-21T12:27:48;11.73;84.20
71177;DHT22;58877;51.992;4.504;2023-11-21T12:30:22;11.70;83.25
71177;DHT22;58877;51.992;4.504;2023-11-21T12:32:54;11.70;83.37
71177;DHT22;58877;51.992;4.504;2023-11-21T12:35:23;11.75;83.02
71177;DHT22;58877;51.992;4.504;2023-11-21T12:37:52;11.82;83.13
71177;DHT22;58877;51.992;4.504;2023-11-21T12:40:18;12.03;82.59
71177;DHT22;58877;51.992;4.504;2023-11-21T12:42:48;12.04;82.21
71177;DHT22;58877;51.992;4.504;2023-11-21T12:45:19;11.99;82.27
71177;DHT22;58877;51.992;4.504;2023-11-21T12:47:47;11.83;82.38
71177;DHT22;58877;51.992;4.504;2023-11-21T12:50:23;11.79;82.53
71177;DHT22;58877;51.992;4.504;2023-11-21T12:52:52;11.73;82.75
71177;DHT22;58877;51.992;4.504;2023-11-21T12:55:22;11.83;82.86
71177;DHT22;58877;51.992;4.504;2023-11-21T12:57:49;11.93;82.73
71177;DHT22;58877;51.992;4.504;2023-11-21T13:00:19;11.96;82.42
71177;DHT22;58877;51.992;4.504;2023-11-21T13:02:55;11.97;82.70
71177;DHT22;58877;51.992;4.504;2023-11-21T13:07:55;11.97;82.36
71177;DHT22;58877;51.992;4.504;2023-11-21T13:10:27;11.96;82.18
71177;DHT22;58877;51.992;4.504;2023-11-21T13:13:01;12.01;82.46
71177;DHT22;58877;51.992;4.504;2023-11-21T13:15:28;12.12;81.92
71177;DHT22;58877;51.992;4.504;2023-11-21T13:17:54;12.27;81.83
71177;DHT22;58877;51.992;4.504;2023-11-21T13:20:21;12.07;81.17
71177;DHT22;58877;51.992;4.504;2023-11-21T13:22:54;12.09;81.27
71177;DHT22;58877;51.992;4.504;2023-11-21T13:25:23;11.87;81.05
71177;DHT22;58877;51.992;4.504;2023-11-21T13:27:49;11.76;81.59
71177;DHT22;58877;51.992;4.504;2023-11-21T13:30:16;11.79;81.33
71177;DHT22;58877;51.992;4.504;2023-11-21T13:32:44;11.79;81.31
71177;DHT22;58877;51.992;4.504;2023-11-21T13:35:15;11.66;81.89
71177;DHT22;58877;51.992;4.504;2023-11-21T13:37:50;11.69;82.02
71177;DHT22;58877;51.992;4.504;2023-11-21T13:40:22;11.67;82.00
71177;DHT22;58877;51.992;4.504;2023-11-21T13:42:53;11.75;81.70
71177;DHT22;58877;51.992;4.504;2023-11-21T13:45:20;11.77;81.55
71177;DHT22;58877;51.992;4.504;2023-11-21T13:47:48;11.70;81.44
71177;DHT22;58877;51.992;4.504;2023-11-21T13:50:17;11.77;81.58
71177;DHT22;58877;51.992;4.504;2023-11-21T13:52:48;11.77;81.44
71177;DHT22;58877;51.992;4.504;2023-11-21T13:55:15;11.96;81.11
71177;DHT22;58877;51.992;4.504;2023-11-21T13:57:42;12.00;81.08
71177;DHT22;58877;51.992;4.504;2023-11-21T14:00:15;11.90;80.82
71177;DHT22;58877;51.992;4.504;2023-11-21T14:03:00;11.87;81.13
71177;DHT22;58877;51.992;4.504;2023-11-21T14:05:29;11.76;81.40
71177;DHT22;58877;51.992;4.504;2023-11-21T14:07:55;11.69;81.88
71177;DHT22;58877;51.992;4.504;2023-11-21T14:10:27;11.58;82.25
71177;DHT22;58877;51.992;4.504;2023-11-21T14:13:03;11.75;82.11
71177;DHT22;58877;51.992;4.504;2023-11-21T14:15:30;11.77;82.10
71177;DHT22;58877;51.992;4.504;2023-11-21T14:17:56;11.80;82.30
71177;DHT22;58877;51.992;4.504;2023-11-21T14:20:22;11.67;82.36
71177;DHT22;58877;51.992;4.504;2023-11-21T14:22:49;11.67;82.46
71177;DHT22;58877;51.992;4.504;2023-11-21T14:25:16;11.69;82.00
71177;DHT22;58877;51.992;4.504;2023-11-21T14:27:43;11.61;81.79
71177;DHT22;58877;51.992;4.504;2023-11-21T14:30:10;11.56;82.19
71177;DHT22;58877;51.992;4.504;2023-11-21T14:32:38;11.45;82.31
71177;DHT22;58877;51.992;4.504;2023-11-21T14:35:04;11.42;82.89
71177;DHT22;58877;51.992;4.504;2023-11-21T14:37:30;11.36;82.92
71177;DHT22;58877;51.992;4.504;2023-11-21T14:39:56;11.25;83.17
71177;DHT22;58877;51.992;4.504;2023-11-21T14:42:22;11.26;82.96
71177;DHT22;58877;51.992;4.504;2023-11-21T14:44:51;11.22;83.19
71177;DHT22;58877;51.992;4.504;2023-11-21T14:47:17;11.18;83.05
71177;DHT22;58877;51.992;4.504;2023-11-21T14:49:50;11.18;83.30
71177;DHT22;58877;51.992;4.504;2023-11-21T14:52:21;11.08;84.09
71177;DHT22;58877;51.992;4.504;2023-11-21T14:55:05;11.08;83.48
71177;DHT22;58877;51.992;4.504;2023-11-21T14:57:49;11.07;83.34
71177;DHT22;58877;51.992;4.504;2023-11-21T15:00:20;11.02;83.32
71177;DHT22;58877;51.992;4.504;2023-11-21T15:02:58;11.14;83.70
71177;DHT22;58877;51.992;4.504;2023-11-21T15:05:23;11.10;83.57
71177;DHT22;58877;51.992;4.504;2023-11-21T15:07:50;10.91;83.21
71177;DHT22;58877;51.992;4.504;2023-11-21T15:10:21;10.80;83.51
71177;DHT22;58877;51.992;4.504;2023-11-21T15:12:54;10.74;83.28
71177;DHT22;58877;51.992;4.504;2023-11-21T15:15:19;10.65;83.23
71177;DHT22;58877;51.992;4.504;2023-11-21T15:17:46;10.77;82.76
71177;DHT22;58877;51.992;4.504;2023-11-21T15:20:12;10.77;82.42
71177;DHT22;58877;51.992;4.504;2023-11-21T15:22:44;10.71;81.94
71177;DHT22;58877;51.992;4.504;2023-11-21T15:25:10;10.70;82.19
71177;DHT22;58877;51.992;4.504;2023-11-21T15:27:36;10.70;82.41
71177;DHT22;58877;51.992;4.504;2023-11-21T15:30:02;10.78;82.69
71177;DHT22;58877;51.992;4.504;2023-11-21T15:32:29;10.91;81.91
71177;DHT22;58877;51.992;4.504;2023-11-21T15:34:54;10.78;81.88
71177;DHT22;58877;51.992;4.504;2023-11-21T15:37:20;10.61;82.01
71177;DHT22;58877;51.992;4.504;2023-11-21T15:39:45;10.63;82.28
71177;DHT22;58877;51.992;4.504;2023-11-21T15:42:12;10.70;82.33
71177;DHT22;58877;51.992;4.504;2023-11-21T15:44:37;10.60;82.21
71177;DHT22;58877;51.992;4.504;2023-11-21T15:47:04;10.50;82.39
71177;DHT22;58877;51.992;4.504;2023-11-21T15:49:32;10.56;82.58
71177;DHT22;58877;51.992;4.504;2023-11-21T15:52:01;10.71;82.22
71177;DHT22;58877;51.992;4.504;2023-11-21T15:54:28;10.80;82.00
71177;DHT22;58877;51.992;4.504;2023-11-21T15:56:55;10.75;81.39
71177;DHT22;58877;51.992;4.504;2023-11-21T15:59:23;10.67;82.10
71177;DHT22;58877;51.992;4.504;2023-11-21T16:01:53;10.80;82.31
71177;DHT22;58877;51.992;4.504;2023-11-21T16:04:18;10.87;81.34
71177;DHT22;58877;51.992;4.504;2023-11-21T16:06:47;10.63;81.12